Nautic — A8HQ3 — position and weather

sailwx.info

Track history (hours):
 
Tides and Currents Weather Stations Pressure Air Temp Water Temp Dewpoint Dewpoint Depression Visibility Wind Speed Wind Dir Waves Ship Positions

Nautic

Last reported at 2015-May-22 16:31 UTC. Time now 2015-May-23 02:50 UTC.
Position N 35°49' E 014°51'.

Length 274 m; draft 16 m.

Type: Tanker. MMSI: 636012754.

Date/timePositionNaut miles runAvg speedWind from/ knotsBaromVisibWave heightAir tempDewpointWater temp
2015-May-22 16:31N 35°49' E 014°51'0 0.0
2015-May-22 13:31N 35°49' E 014°51'0 0.0
2015-May-22 11:07N 35°49' E 014°51'0 0.0
2015-May-22 06:04N 35°49' E 014°51'0 0.0
2015-May-21 16:31N 35°50' E 014°50'0 0.1
2015-May-21 15:28N 35°50' E 014°50'0 0.1
2015-May-21 14:28N 35°49' E 014°50'0 0.1
2015-May-21 13:31N 35°49' E 014°50'0 0.0
2015-May-21 12:31N 35°49' E 014°50'0 0.1
2015-May-21 11:25N 35°49' E 014°50'0 0.1
2015-May-21 10:31N 35°49' E 014°50'0 0.1
2015-May-21 09:31N 35°49' E 014°51'0 0.1
2015-May-21 08:31N 35°49' E 014°51'0 0.1
2015-May-21 07:28N 35°49' E 014°51'0 0.1
2015-May-21 06:31N 35°49' E 014°51'0 0.0
2015-May-21 05:31N 35°49' E 014°51'0 0.0
2015-May-21 04:07N 35°49' E 014°51'0 0.0
2015-May-21 02:33N 35°49' E 014°51'0 0.1
2015-May-21 01:33N 35°50' E 014°51'0 0.0
2015-May-21 00:33N 35°50' E 014°51'0 0.1
2015-May-20 23:33N 35°50' E 014°51'0 0.1
2015-May-20 22:33N 35°50' E 014°50'0 0.0
2015-May-20 21:33N 35°50' E 014°50'0 0.0
2015-May-20 20:33N 35°50' E 014°50'0 0.0
2015-May-20 19:33N 35°50' E 014°50'0 0.1
2015-May-20 18:33N 35°49' E 014°50'0 0.1
2015-May-20 17:33N 35°50' E 014°50'0 0.0
2015-May-20 16:33N 35°50' E 014°51'0 0.1
2015-May-20 15:33N 35°50' E 014°51'0 0.1
2015-May-20 14:33N 35°49' E 014°51'0 0.0
2015-May-20 13:33N 35°49' E 014°51'0 0.0
2015-May-20 12:33N 35°49' E 014°51'0 0.0
2015-May-20 11:33N 35°49' E 014°51'0 0.0
2015-May-20 10:33N 35°49' E 014°51'0 0.1
2015-May-20 09:33N 35°49' E 014°51'3 3.4
2015-May-20 08:33N 35°49' E 014°55'5 4.6
2015-May-20 07:33N 35°48' E 015°00'4 4.1
2015-May-20 06:33N 35°49' E 015°05'5 4.7
2015-May-20 05:33N 35°50' E 014°60'5 4.8
2015-May-20 04:33N 35°49' E 014°54'2 2.4
2015-May-20 03:33N 35°50' E 014°51'0 0.0
2015-May-20 02:32N 35°50' E 014°51'0 0.1
2015-May-20 01:17N 35°50' E 014°51'0 0.1
2015-May-20 00:32N 35°50' E 014°51'0 0.1
2015-May-19 23:32N 35°50' E 014°51'0 0.0
2015-May-19 22:32N 35°50' E 014°51'0 0.0
2015-May-19 21:32N 35°50' E 014°51'0 0.0
2015-May-19 20:32N 35°50' E 014°51'0 0.0
2015-May-19 19:32N 35°50' E 014°51'0 0.1
2015-May-19 18:26N 35°50' E 014°51'0 0.0
2015-May-19 17:33N 35°50' E 014°51'2 2.1
2015-May-19 16:32N 35°50' E 014°53'3 3.2
2015-May-19 15:33N 35°49' E 014°57'3 2.6
2015-May-19 14:16N 35°49' E 015°01'3 3.4
2015-May-19 13:27N 35°50' E 014°58'4 4.0
2015-May-19 12:33N 35°50' E 014°54'2 2.5
2015-May-19 11:33N 35°49' E 014°51'0 0.2
2015-May-19 10:29N 35°49' E 014°51'0 0.0
2015-May-19 09:32N 35°49' E 014°51'0 0.0
2015-May-19 08:32N 35°49' E 014°51'0 0.0
2015-May-19 07:23N 35°49' E 014°51'0 0.0
2015-May-19 06:26N 35°49' E 014°51'0 0.0
2015-May-19 05:32N 35°49' E 014°51'0 0.0
2015-May-19 04:14N 35°49' E 014°51'0 0.0
2015-May-19 03:23N 35°49' E 014°51'0 0.0
2015-May-19 02:20N 35°49' E 014°51'0 0.1
2015-May-19 01:11N 35°49' E 014°51'1 0.0
2015-May-18 08:15N 35°50' E 014°51'0 0.1
2015-May-18 07:09N 35°50' E 014°51'0 0.0
2015-May-18 04:21N 35°50' E 014°51'0 0.0
2015-May-18 01:27N 35°50' E 014°51'0 0.0
2015-May-18 00:21N 35°50' E 014°51'0 0.0
2015-May-17 23:18N 35°50' E 014°51'0 0.0
2015-May-17 22:27N 35°50' E 014°51'0 0.1
2015-May-17 21:33N 35°50' E 014°51'0 0.0
2015-May-17 20:33N 35°50' E 014°51'0 0.0
2015-May-17 18:21N 35°50' E 014°51'0 0.0
2015-May-17 17:24N 35°50' E 014°51'0 0.0
2015-May-17 16:24N 35°50' E 014°51'0 0.0
2015-May-17 15:33N 35°50' E 014°51'0 0.0
2015-May-17 14:27N 35°50' E 014°51'0 0.0
2015-May-17 13:27N 35°50' E 014°51'0 0.1
2015-May-17 12:30N 35°50' E 014°51'0 0.0
2015-May-17 09:12N 35°50' E 014°51'0 0.0
2015-May-17 07:24N 35°50' E 014°51'0 0.0
2015-May-17 06:33N 35°50' E 014°51'0 0.0
2015-May-17 05:12N 35°50' E 014°51'0 0.0
2015-May-17 01:33N 35°50' E 014°51'0 0.0
2015-May-17 00:33N 35°50' E 014°51'0 0.0
2015-May-16 20:27N 35°50' E 014°51'0 0.1
2015-May-16 17:18N 35°50' E 014°51'0 0.0
2015-May-16 15:30N 35°50' E 014°51'0 0.0
2015-May-16 14:15N 35°50' E 014°51'0 0.0
2015-May-16 09:33N 35°50' E 014°51'0 0.0
2015-May-16 08:30N 35°50' E 014°51'0 0.0
2015-May-16 07:30N 35°50' E 014°51'0 0.0
2015-May-16 04:30N 35°50' E 014°51'0 0.0
2015-May-16 01:18N 35°50' E 014°51'0 0.1
2015-May-15 23:33N 35°50' E 014°51'0 0.0
2015-May-15 22:33N 35°50' E 014°51'0 0.0
2015-May-15 21:33N 35°50' E 014°51'0 0.0
2015-May-15 20:33N 35°50' E 014°51'0 0.0
2015-May-15 19:33N 35°50' E 014°51'0 0.0
2015-May-15 18:30N 35°50' E 014°51'0 0.1
2015-May-15 17:30N 35°50' E 014°51'0 0.1
2015-May-15 16:33N 35°50' E 014°51'0 0.1
2015-May-15 15:33N 35°50' E 014°51'0 0.1
2015-May-15 14:33N 35°50' E 014°51'0 0.0
2015-May-15 13:33N 35°50' E 014°51'0 0.0
2015-May-15 12:33N 35°50' E 014°51'0 0.1
2015-May-15 11:33N 35°50' E 014°51'0 0.1
2015-May-15 10:30N 35°50' E 014°51'0 0.0
2015-May-15 09:33N 35°50' E 014°51'0 0.1
2015-May-15 08:33N 35°50' E 014°51'0 0.0
2015-May-15 07:33N 35°50' E 014°51'0 0.1
2015-May-15 06:33N 35°50' E 014°51'0 0.0
2015-May-15 05:33N 35°50' E 014°51'0 0.0
2015-May-15 04:33N 35°50' E 014°51'0 0.0
2015-May-15 03:33N 35°50' E 014°51'0 0.0
2015-May-15 02:33N 35°50' E 014°51'0 0.0
2015-May-15 01:33N 35°50' E 014°51'0 0.0
2015-May-15 00:33N 35°50' E 014°51'0 0.1
2015-May-14 23:33N 35°50' E 014°51'0 0.0
2015-May-14 22:33N 35°50' E 014°51'0 0.1
2015-May-14 21:33N 35°50' E 014°51'0 0.0
2015-May-14 20:33N 35°50' E 014°51'0 0.0
2015-May-14 19:33N 35°50' E 014°51'0 0.0
2015-May-14 18:33N 35°50' E 014°51'0 0.0
2015-May-14 17:33N 35°50' E 014°51'0 0.0
2015-May-14 16:33N 35°50' E 014°51'0 0.0
2015-May-14 15:33N 35°50' E 014°51'0 0.0
2015-May-14 14:33N 35°50' E 014°51'0 0.0
2015-May-14 13:33N 35°50' E 014°51'0 0.0
2015-May-14 12:33N 35°50' E 014°51'0 0.1
2015-May-14 11:30N 35°50' E 014°51'0 0.0
2015-May-14 10:33N 35°50' E 014°51'0 0.0
2015-May-14 09:33N 35°50' E 014°51'0 0.1
2015-May-14 08:33N 35°50' E 014°51'0 0.0
2015-May-14 07:33N 35°50' E 014°51'0 0.1
2015-May-14 06:33N 35°50' E 014°51'0 0.0
2015-May-14 05:30N 35°50' E 014°51'0 0.0
2015-May-14 04:33N 35°50' E 014°51'0 0.0
2015-May-14 03:33N 35°50' E 014°51'0 0.0
2015-May-14 02:30N 35°50' E 014°51'0 0.1
2015-May-14 01:33N 35°50' E 014°51'0 0.1
2015-May-14 00:12N 35°50' E 014°51'2 2.5
2015-May-13 23:33N 35°50' E 014°53'5 4.9
2015-May-13 22:33N 35°51' E 014°59'3 3.0
2015-May-13 21:33N 35°50' E 014°56'4 4.0
2015-May-13 20:33N 35°49' E 014°51'0 0.2
2015-May-13 19:19N 35°49' E 014°51'0 0.0
2015-May-13 18:31N 35°49' E 014°51'0 0.1
2015-May-13 17:25N 35°49' E 014°51'0 0.1
2015-May-13 16:29N 35°49' E 014°51'0 0.1
2015-May-13 15:31N 35°49' E 014°51'0 0.0
2015-May-13 14:16N 35°49' E 014°51'0 0.0
2015-May-13 13:32N 35°49' E 014°51'0 0.0
2015-May-13 12:32N 35°49' E 014°51'0 0.1
2015-May-13 11:29N 35°49' E 014°51'0 0.0
2015-May-13 10:25N 35°49' E 014°51'0 0.0
2015-May-13 09:28N 35°49' E 014°51'0 0.0
2015-May-13 08:32N 35°49' E 014°51'0 0.0
2015-May-13 07:17N 35°49' E 014°51'0 0.0
2015-May-13 06:31N 35°49' E 014°51'0 0.0
2015-May-13 05:26N 35°49' E 014°51'0 0.2
2015-May-13 04:26N 35°49' E 014°51'0 0.1
2015-May-13 03:33N 35°49' E 014°51'3 3.0
2015-May-13 02:33N 35°46' E 014°50'5 4.9
2015-May-13 01:33N 35°42' E 014°47'1 0.6
2015-May-13 00:33N 35°43' E 014°47'4 1.0
2015-May-12 20:32N 35°46' E 014°49'1 1.3
2015-May-12 19:31N 35°47' E 014°50'4 3.4
2015-May-12 18:12N 35°46' E 014°56'2 2.6
2015-May-12 17:25N 35°48' E 014°55'3 3.9
2015-May-12 16:33N 35°50' E 014°52'  
Track history (hours):
 
Tides and Currents Weather Stations Pressure Air Temp Water Temp Dewpoint Dewpoint Depression Visibility Wind Speed Wind Dir Waves Ship Positions

Nautic

Last reported at 2015-May-22 16:31 UTC. Time now 2015-May-23 02:50 UTC.
Position N 35°49' E 014°51'.

Length 274 m; draft 16 m.

Type: Tanker. MMSI: 636012754.

Date/timePositionNaut miles runAvg speedWind from/ knotsBaromVisibWave heightAir tempDewpointWater temp
2015-May-22 16:31N 35°49' E 014°51'0 0.0
2015-May-22 13:31N 35°49' E 014°51'0 0.0
2015-May-22 11:07N 35°49' E 014°51'0 0.0
2015-May-22 06:04N 35°49' E 014°51'0 0.0
2015-May-21 16:31N 35°50' E 014°50'0 0.1
2015-May-21 15:28N 35°50' E 014°50'0 0.1
2015-May-21 14:28N 35°49' E 014°50'0 0.1
2015-May-21 13:31N 35°49' E 014°50'0 0.0
2015-May-21 12:31N 35°49' E 014°50'0 0.1
2015-May-21 11:25N 35°49' E 014°50'0 0.1
2015-May-21 10:31N 35°49' E 014°50'0 0.1
2015-May-21 09:31N 35°49' E 014°51'0 0.1
2015-May-21 08:31N 35°49' E 014°51'0 0.1
2015-May-21 07:28N 35°49' E 014°51'0 0.1
2015-May-21 06:31N 35°49' E 014°51'0 0.0
2015-May-21 05:31N 35°49' E 014°51'0 0.0
2015-May-21 04:07N 35°49' E 014°51'0 0.0
2015-May-21 02:33N 35°49' E 014°51'0 0.1
2015-May-21 01:33N 35°50' E 014°51'0 0.0
2015-May-21 00:33N 35°50' E 014°51'0 0.1
2015-May-20 23:33N 35°50' E 014°51'0 0.1
2015-May-20 22:33N 35°50' E 014°50'0 0.0
2015-May-20 21:33N 35°50' E 014°50'0 0.0
2015-May-20 20:33N 35°50' E 014°50'0 0.0
2015-May-20 19:33N 35°50' E 014°50'0 0.1
2015-May-20 18:33N 35°49' E 014°50'0 0.1
2015-May-20 17:33N 35°50' E 014°50'0 0.0
2015-May-20 16:33N 35°50' E 014°51'0 0.1
2015-May-20 15:33N 35°50' E 014°51'0 0.1
2015-May-20 14:33N 35°49' E 014°51'0 0.0
2015-May-20 13:33N 35°49' E 014°51'0 0.0
2015-May-20 12:33N 35°49' E 014°51'0 0.0
2015-May-20 11:33N 35°49' E 014°51'0 0.0
2015-May-20 10:33N 35°49' E 014°51'0 0.1
2015-May-20 09:33N 35°49' E 014°51'3 3.4
2015-May-20 08:33N 35°49' E 014°55'5 4.6
2015-May-20 07:33N 35°48' E 015°00'4 4.1
2015-May-20 06:33N 35°49' E 015°05'5 4.7
2015-May-20 05:33N 35°50' E 014°60'5 4.8
2015-May-20 04:33N 35°49' E 014°54'2 2.4
2015-May-20 03:33N 35°50' E 014°51'0 0.0
2015-May-20 02:32N 35°50' E 014°51'0 0.1
2015-May-20 01:17N 35°50' E 014°51'0 0.1
2015-May-20 00:32N 35°50' E 014°51'0 0.1
2015-May-19 23:32N 35°50' E 014°51'0 0.0
2015-May-19 22:32N 35°50' E 014°51'0 0.0
2015-May-19 21:32N 35°50' E 014°51'0 0.0
2015-May-19 20:32N 35°50' E 014°51'0 0.0
2015-May-19 19:32N 35°50' E 014°51'0 0.1
2015-May-19 18:26N 35°50' E 014°51'0 0.0
2015-May-19 17:33N 35°50' E 014°51'2 2.1
2015-May-19 16:32N 35°50' E 014°53'3 3.2
2015-May-19 15:33N 35°49' E 014°57'3 2.6
2015-May-19 14:16N 35°49' E 015°01'3 3.4
2015-May-19 13:27N 35°50' E 014°58'4 4.0
2015-May-19 12:33N 35°50' E 014°54'2 2.5
2015-May-19 11:33N 35°49' E 014°51'0 0.2
2015-May-19 10:29N 35°49' E 014°51'0 0.0
2015-May-19 09:32N 35°49' E 014°51'0 0.0
2015-May-19 08:32N 35°49' E 014°51'0 0.0
2015-May-19 07:23N 35°49' E 014°51'0 0.0
2015-May-19 06:26N 35°49' E 014°51'0 0.0
2015-May-19 05:32N 35°49' E 014°51'0 0.0
2015-May-19 04:14N 35°49' E 014°51'0 0.0
2015-May-19 03:23N 35°49' E 014°51'0 0.0
2015-May-19 02:20N 35°49' E 014°51'0 0.1
2015-May-19 01:11N 35°49' E 014°51'1 0.0
2015-May-18 08:15N 35°50' E 014°51'0 0.1
2015-May-18 07:09N 35°50' E 014°51'0 0.0
2015-May-18 04:21N 35°50' E 014°51'0 0.0
2015-May-18 01:27N 35°50' E 014°51'0 0.0
2015-May-18 00:21N 35°50' E 014°51'0 0.0
2015-May-17 23:18N 35°50' E 014°51'0 0.0
2015-May-17 22:27N 35°50' E 014°51'0 0.1
2015-May-17 21:33N 35°50' E 014°51'0 0.0
2015-May-17 20:33N 35°50' E 014°51'0 0.0
2015-May-17 18:21N 35°50' E 014°51'0 0.0
2015-May-17 17:24N 35°50' E 014°51'0 0.0
2015-May-17 16:24N 35°50' E 014°51'0 0.0
2015-May-17 15:33N 35°50' E 014°51'0 0.0
2015-May-17 14:27N 35°50' E 014°51'0 0.0
2015-May-17 13:27N 35°50' E 014°51'0 0.1
2015-May-17 12:30N 35°50' E 014°51'0 0.0
2015-May-17 09:12N 35°50' E 014°51'0 0.0
2015-May-17 07:24N 35°50' E 014°51'0 0.0
2015-May-17 06:33N 35°50' E 014°51'0 0.0
2015-May-17 05:12N 35°50' E 014°51'0 0.0
2015-May-17 01:33N 35°50' E 014°51'0 0.0
2015-May-17 00:33N 35°50' E 014°51'0 0.0
2015-May-16 20:27N 35°50' E 014°51'0 0.1
2015-May-16 17:18N 35°50' E 014°51'0 0.0
2015-May-16 15:30N 35°50' E 014°51'0 0.0
2015-May-16 14:15N 35°50' E 014°51'0 0.0
2015-May-16 09:33N 35°50' E 014°51'0 0.0
2015-May-16 08:30N 35°50' E 014°51'0 0.0
2015-May-16 07:30N 35°50' E 014°51'0 0.0
2015-May-16 04:30N 35°50' E 014°51'0 0.0
2015-May-16 01:18N 35°50' E 014°51'0 0.1
2015-May-15 23:33N 35°50' E 014°51'0 0.0
2015-May-15 22:33N 35°50' E 014°51'0 0.0
2015-May-15 21:33N 35°50' E 014°51'0 0.0
2015-May-15 20:33N 35°50' E 014°51'0 0.0
2015-May-15 19:33N 35°50' E 014°51'0 0.0
2015-May-15 18:30N 35°50' E 014°51'0 0.1
2015-May-15 17:30N 35°50' E 014°51'0 0.1
2015-May-15 16:33N 35°50' E 014°51'0 0.1
2015-May-15 15:33N 35°50' E 014°51'0 0.1
2015-May-15 14:33N 35°50' E 014°51'0 0.0
2015-May-15 13:33N 35°50' E 014°51'0 0.0
2015-May-15 12:33N 35°50' E 014°51'0 0.1
2015-May-15 11:33N 35°50' E 014°51'0 0.1
2015-May-15 10:30N 35°50' E 014°51'0 0.0
2015-May-15 09:33N 35°50' E 014°51'0 0.1
2015-May-15 08:33N 35°50' E 014°51'0 0.0
2015-May-15 07:33N 35°50' E 014°51'0 0.1
2015-May-15 06:33N 35°50' E 014°51'0 0.0
2015-May-15 05:33N 35°50' E 014°51'0 0.0
2015-May-15 04:33N 35°50' E 014°51'0 0.0
2015-May-15 03:33N 35°50' E 014°51'0 0.0
2015-May-15 02:33N 35°50' E 014°51'0 0.0
2015-May-15 01:33N 35°50' E 014°51'0 0.0
2015-May-15 00:33N 35°50' E 014°51'0 0.1
2015-May-14 23:33N 35°50' E 014°51'0 0.0
2015-May-14 22:33N 35°50' E 014°51'0 0.1
2015-May-14 21:33N 35°50' E 014°51'0 0.0
2015-May-14 20:33N 35°50' E 014°51'0 0.0
2015-May-14 19:33N 35°50' E 014°51'0 0.0
2015-May-14 18:33N 35°50' E 014°51'0 0.0
2015-May-14 17:33N 35°50' E 014°51'0 0.0
2015-May-14 16:33N 35°50' E 014°51'0 0.0
2015-May-14 15:33N 35°50' E 014°51'0 0.0
2015-May-14 14:33N 35°50' E 014°51'0 0.0
2015-May-14 13:33N 35°50' E 014°51'0 0.0
2015-May-14 12:33N 35°50' E 014°51'0 0.1
2015-May-14 11:30N 35°50' E 014°51'0 0.0
2015-May-14 10:33N 35°50' E 014°51'0 0.0
2015-May-14 09:33N 35°50' E 014°51'0 0.1
2015-May-14 08:33N 35°50' E 014°51'0 0.0
2015-May-14 07:33N 35°50' E 014°51'0 0.1
2015-May-14 06:33N 35°50' E 014°51'0 0.0
2015-May-14 05:30N 35°50' E 014°51'0 0.0
2015-May-14 04:33N 35°50' E 014°51'0 0.0
2015-May-14 03:33N 35°50' E 014°51'0 0.0
2015-May-14 02:30N 35°50' E 014°51'0 0.1
2015-May-14 01:33N 35°50' E 014°51'0 0.1
2015-May-14 00:12N 35°50' E 014°51'2 2.5
2015-May-13 23:33N 35°50' E 014°53'5 4.9
2015-May-13 22:33N 35°51' E 014°59'3 3.0
2015-May-13 21:33N 35°50' E 014°56'4 4.0
2015-May-13 20:33N 35°49' E 014°51'0 0.2
2015-May-13 19:19N 35°49' E 014°51'0 0.0
2015-May-13 18:31N 35°49' E 014°51'0 0.1
2015-May-13 17:25N 35°49' E 014°51'0 0.1
2015-May-13 16:29N 35°49' E 014°51'0 0.1
2015-May-13 15:31N 35°49' E 014°51'0 0.0
2015-May-13 14:16N 35°49' E 014°51'0 0.0
2015-May-13 13:32N 35°49' E 014°51'0 0.0
2015-May-13 12:32N 35°49' E 014°51'0 0.1
2015-May-13 11:29N 35°49' E 014°51'0 0.0
2015-May-13 10:25N 35°49' E 014°51'0 0.0
2015-May-13 09:28N 35°49' E 014°51'0 0.0
2015-May-13 08:32N 35°49' E 014°51'0 0.0
2015-May-13 07:17N 35°49' E 014°51'0 0.0
2015-May-13 06:31N 35°49' E 014°51'0 0.0
2015-May-13 05:26N 35°49' E 014°51'0 0.2
2015-May-13 04:26N 35°49' E 014°51'0 0.1
2015-May-13 03:33N 35°49' E 014°51'3 3.0
2015-May-13 02:33N 35°46' E 014°50'5 4.9
2015-May-13 01:33N 35°42' E 014°47'1 0.6
2015-May-13 00:33N 35°43' E 014°47'4 1.0
2015-May-12 20:32N 35°46' E 014°49'1 1.3
2015-May-12 19:31N 35°47' E 014°50'4 3.4
2015-May-12 18:12N 35°46' E 014°56'2 2.6
2015-May-12 17:25N 35°48' E 014°55'3 3.9
2015-May-12 16:33N 35°50' E 014°52'  

Dump ship's entire track history